sensor_id;sensor_type;location;lat;lon;timestamp;temperature;humidity
4314;DHT22;2170;48.794;9.182;2023-12-14T00:02:15;7.00;99.90
4314;DHT22;2170;48.794;9.182;2023-12-14T00:04:59;7.00;99.90
4314;DHT22;2170;48.794;9.182;2023-12-14T00:07:42;6.60;99.90
4314;DHT22;2170;48.794;9.182;2023-12-14T00:10:25;7.00;99.90
4314;DHT22;2170;48.794;9.182;2023-12-14T00:13:31;6.90;99.90
4314;DHT22;2170;48.794;9.182;2023-12-14T00:16:21;7.00;99.90
4314;DHT22;2170;48.794;9.182;2023-12-14T00:19:18;7.00;99.90
4314;DHT22;2170;48.794;9.182;2023-12-14T00:22:07;7.00;99.90
4314;DHT22;2170;48.794;9.182;2023-12-14T00:24:49;7.00;99.90
4314;DHT22;2170;48.794;9.182;2023-12-14T00:30:14;7.00;99.90
4314;DHT22;2170;48.794;9.182;2023-12-14T00:32:50;7.00;99.90
4314;DHT22;2170;48.794;9.182;2023-12-14T00:35:30;7.00;99.90
4314;DHT22;2170;48.794;9.182;2023-12-14T00:38:14;7.00;99.90
4314;DHT22;2170;48.794;9.182;2023-12-14T00:40:54;6.90;99.90
4314;DHT22;2170;48.794;9.182;2023-12-14T00:43:35;6.90;99.90
4314;DHT22;2170;48.794;9.182;2023-12-14T00:46:24;6.90;99.90
4314;DHT22;2170;48.794;9.182;2023-12-14T00:49:08;6.90;99.90
4314;DHT22;2170;48.794;9.182;2023-12-14T00:51:47;6.90;99.90
4314;DHT22;2170;48.794;9.182;2023-12-14T00:55:15;7.00;99.90
4314;DHT22;2170;48.794;9.182;2023-12-14T00:57:50;7.00;99.90
4314;DHT22;2170;48.794;9.182;2023-12-14T01:00:31;7.00;99.90
4314;DHT22;2170;48.794;9.182;2023-12-14T01:03:22;7.00;99.90
4314;DHT22;2170;48.794;9.182;2023-12-14T01:06:01;7.00;99.90
4314;DHT22;2170;48.794;9.182;2023-12-14T01:08:39;7.00;99.90
4314;DHT22;2170;48.794;9.182;2023-12-14T01:11:26;7.00;99.90
4314;DHT22;2170;48.794;9.182;2023-12-14T01:14:02;7.00;99.90
4314;DHT22;2170;48.794;9.182;2023-12-14T01:16:44;7.00;99.90
4314;DHT22;2170;48.794;9.182;2023-12-14T01:19:27;7.00;99.90
4314;DHT22;2170;48.794;9.182;2023-12-14T01:22:14;7.00;99.90
4314;DHT22;2170;48.794;9.182;2023-12-14T01:25:02;7.00;99.90
4314;DHT22;2170;48.794;9.182;2023-12-14T01:27:47;7.00;99.90
4314;DHT22;2170;48.794;9.182;2023-12-14T01:33:20;7.00;99.90
4314;DHT22;2170;48.794;9.182;2023-12-14T01:36:05;7.00;99.90
4314;DHT22;2170;48.794;9.182;2023-12-14T01:38:48;7.00;99.90
4314;DHT22;2170;48.794;9.182;2023-12-14T01:41:31;7.00;99.90
4314;DHT22;2170;48.794;9.182;2023-12-14T01:44:21;7.00;99.90
4314;DHT22;2170;48.794;9.182;2023-12-14T01:47:13;7.10;99.90
4314;DHT22;2170;48.794;9.182;2023-12-14T01:50:01;7.00;99.90
4314;DHT22;2170;48.794;9.182;2023-12-14T01:52:50;7.10;99.90
4314;DHT22;2170;48.794;9.182;2023-12-14T01:55:30;7.10;99.90
4314;DHT22;2170;48.794;9.182;2023-12-14T01:58:00;7.10;99.90
4314;DHT22;2170;48.794;9.182;2023-12-14T02:00:41;7.00;99.90
4314;DHT22;2170;48.794;9.182;2023-12-14T02:03:30;7.00;99.90
4314;DHT22;2170;48.794;9.182;2023-12-14T02:06:15;7.00;99.90
4314;DHT22;2170;48.794;9.182;2023-12-14T02:08:52;7.00;99.90
4314;DHT22;2170;48.794;9.182;2023-12-14T02:11:36;7.00;99.90
4314;DHT22;2170;48.794;9.182;2023-12-14T02:14:25;6.90;99.90
4314;DHT22;2170;48.794;9.182;2023-12-14T02:17:02;6.90;99.90
4314;DHT22;2170;48.794;9.182;2023-12-14T02:19:39;6.90;99.90
4314;DHT22;2170;48.794;9.182;2023-12-14T02:22:15;6.90;99.90
4314;DHT22;2170;48.794;9.182;2023-12-14T02:25:13;6.90;99.90
4314;DHT22;2170;48.794;9.182;2023-12-14T02:27:54;6.90;99.90
4314;DHT22;2170;48.794;9.182;2023-12-14T02:30:36;6.90;99.90
4314;DHT22;2170;48.794;9.182;2023-12-14T02:33:19;6.90;99.90
4314;DHT22;2170;48.794;9.182;2023-12-14T02:35:59;6.90;99.90
4314;DHT22;2170;48.794;9.182;2023-12-14T02:38:34;6.90;99.90
4314;DHT22;2170;48.794;9.182;2023-12-14T02:41:10;6.90;99.90
4314;DHT22;2170;48.794;9.182;2023-12-14T02:43:49;6.90;99.90
4314;DHT22;2170;48.794;9.182;2023-12-14T02:46:56;6.90;99.90
4314;DHT22;2170;48.794;9.182;2023-12-14T02:49:43;6.90;99.90
4314;DHT22;2170;48.794;9.182;2023-12-14T02:52:24;6.90;99.90
4314;DHT22;2170;48.794;9.182;2023-12-14T02:55:34;6.90;99.90
4314;DHT22;2170;48.794;9.182;2023-12-14T02:58:30;6.90;99.90
4314;DHT22;2170;48.794;9.182;2023-12-14T03:01:55;6.90;99.90
4314;DHT22;2170;48.794;9.182;2023-12-14T03:04:41;6.90;99.90
4314;DHT22;2170;48.794;9.182;2023-12-14T03:11:01;6.90;99.90
4314;DHT22;2170;48.794;9.182;2023-12-14T03:16:50;6.90;99.90
4314;DHT22;2170;48.794;9.182;2023-12-14T03:23:42;6.90;99.90
4314;DHT22;2170;48.794;9.182;2023-12-14T03:26:31;6.90;99.90
4314;DHT22;2170;48.794;9.182;2023-12-14T03:29:33;6.90;99.90
4314;DHT22;2170;48.794;9.182;2023-12-14T03:35:35;6.90;99.90
4314;DHT22;2170;48.794;9.182;2023-12-14T03:38:14;6.90;99.90
4314;DHT22;2170;48.794;9.182;2023-12-14T03:40:50;6.90;99.90
4314;DHT22;2170;48.794;9.182;2023-12-14T03:43:43;6.90;99.90
4314;DHT22;2170;48.794;9.182;2023-12-14T03:46:23;6.90;99.90
4314;DHT22;2170;48.794;9.182;2023-12-14T03:49:05;6.90;99.90
4314;DHT22;2170;48.794;9.182;2023-12-14T03:51:46;6.90;99.90
4314;DHT22;2170;48.794;9.182;2023-12-14T03:54:29;6.90;99.90
4314;DHT22;2170;48.794;9.182;2023-12-14T03:57:11;6.90;99.90
4314;DHT22;2170;48.794;9.182;2023-12-14T04:00:11;6.90;99.90
4314;DHT22;2170;48.794;9.182;2023-12-14T04:06:32;6.90;99.90
4314;DHT22;2170;48.794;9.182;2023-12-14T04:09:12;7.00;99.90
4314;DHT22;2170;48.794;9.182;2023-12-14T04:12:14;7.00;99.90
4314;DHT22;2170;48.794;9.182;2023-12-14T04:14:51;7.00;99.90
4314;DHT22;2170;48.794;9.182;2023-12-14T04:17:30;7.00;99.90
4314;DHT22;2170;48.794;9.182;2023-12-14T04:20:21;7.00;99.90
4314;DHT22;2170;48.794;9.182;2023-12-14T04:23:14;7.20;99.90
4314;DHT22;2170;48.794;9.182;2023-12-14T04:25:58;6.90;99.90
4314;DHT22;2170;48.794;9.182;2023-12-14T04:29:26;6.90;99.90
4314;DHT22;2170;48.794;9.182;2023-12-14T04:32:16;6.90;99.90
4314;DHT22;2170;48.794;9.182;2023-12-14T04:35:14;7.00;99.90
4314;DHT22;2170;48.794;9.182;2023-12-14T04:38:24;7.00;99.90
4314;DHT22;2170;48.794;9.182;2023-12-14T04:44:43;7.00;99.90
4314;DHT22;2170;48.794;9.182;2023-12-14T04:47:40;7.00;99.90
4314;DHT22;2170;48.794;9.182;2023-12-14T04:50:34;6.90;99.90
4314;DHT22;2170;48.794;9.182;2023-12-14T04:53:30;6.90;99.90
4314;DHT22;2170;48.794;9.182;2023-12-14T04:56:18;6.70;99.90
4314;DHT22;2170;48.794;9.182;2023-12-14T04:59:44;6.90;99.90
4314;DHT22;2170;48.794;9.182;2023-12-14T05:02:39;7.00;99.90
4314;DHT22;2170;48.794;9.182;2023-12-14T05:05:42;6.90;99.90
4314;DHT22;2170;48.794;9.182;2023-12-14T05:24:28;7.00;99.90
4314;DHT22;2170;48.794;9.182;2023-12-14T05:27:10;7.00;99.90
4314;DHT22;2170;48.794;9.182;2023-12-14T05:29:53;7.00;99.90
4314;DHT22;2170;48.794;9.182;2023-12-14T05:32:42;7.00;99.90
4314;DHT22;2170;48.794;9.182;2023-12-14T05:35:21;7.10;99.90
4314;DHT22;2170;48.794;9.182;2023-12-14T05:38:05;7.10;99.90
4314;DHT22;2170;48.794;9.182;2023-12-14T05:40:45;7.10;99.90
4314;DHT22;2170;48.794;9.182;2023-12-14T05:43:40;7.10;99.90
4314;DHT22;2170;48.794;9.182;2023-12-14T05:46:27;7.10;99.90
4314;DHT22;2170;48.794;9.182;2023-12-14T05:49:01;7.10;99.90
4314;DHT22;2170;48.794;9.182;2023-12-14T05:51:42;7.10;99.90
4314;DHT22;2170;48.794;9.182;2023-12-14T05:54:22;7.30;99.90
4314;DHT22;2170;48.794;9.182;2023-12-14T05:57:02;7.10;99.90
4314;DHT22;2170;48.794;9.182;2023-12-14T05:59:54;7.10;99.90
4314;DHT22;2170;48.794;9.182;2023-12-14T06:02:25;7.10;99.90
4314;DHT22;2170;48.794;9.182;2023-12-14T06:05:03;7.10;99.90
4314;DHT22;2170;48.794;9.182;2023-12-14T06:07:41;7.10;99.90
4314;DHT22;2170;48.794;9.182;2023-12-14T06:10:32;7.10;99.90
4314;DHT22;2170;48.794;9.182;2023-12-14T06:13:08;7.10;99.90
4314;DHT22;2170;48.794;9.182;2023-12-14T06:15:45;7.10;99.90
4314;DHT22;2170;48.794;9.182;2023-12-14T06:18:36;7.10;99.90
4314;DHT22;2170;48.794;9.182;2023-12-14T06:21:24;7.10;99.90
4314;DHT22;2170;48.794;9.182;2023-12-14T06:24:13;7.10;99.90
4314;DHT22;2170;48.794;9.182;2023-12-14T06:27:05;7.10;99.90
4314;DHT22;2170;48.794;9.182;2023-12-14T06:29:47;7.10;99.90
4314;DHT22;2170;48.794;9.182;2023-12-14T06:32:30;7.10;99.90
4314;DHT22;2170;48.794;9.182;2023-12-14T06:35:12;7.00;99.90
4314;DHT22;2170;48.794;9.182;2023-12-14T06:37:55;7.10;99.90
4314;DHT22;2170;48.794;9.182;2023-12-14T06:40:32;7.10;99.90
4314;DHT22;2170;48.794;9.182;2023-12-14T06:43:15;7.10;99.90
4314;DHT22;2170;48.794;9.182;2023-12-14T06:45:57;7.10;99.90
4314;DHT22;2170;48.794;9.182;2023-12-14T06:52:01;7.20;99.90
4314;DHT22;2170;48.794;9.182;2023-12-14T06:54:50;7.20;99.90
4314;DHT22;2170;48.794;9.182;2023-12-14T06:57:45;7.20;99.90
4314;DHT22;2170;48.794;9.182;2023-12-14T07:01:05;7.20;99.90
4314;DHT22;2170;48.794;9.182;2023-12-14T07:03:52;7.20;99.90
4314;DHT22;2170;48.794;9.182;2023-12-14T07:06:38;7.30;99.90
4314;DHT22;2170;48.794;9.182;2023-12-14T07:09:13;7.20;99.90
4314;DHT22;2170;48.794;9.182;2023-12-14T07:11:52;7.20;99.90
4314;DHT22;2170;48.794;9.182;2023-12-14T07:14:21;7.20;99.90
4314;DHT22;2170;48.794;9.182;2023-12-14T07:17:13;7.30;99.90
4314;DHT22;2170;48.794;9.182;2023-12-14T07:19:45;7.10;99.90
4314;DHT22;2170;48.794;9.182;2023-12-14T07:22:15;7.30;99.90
4314;DHT22;2170;48.794;9.182;2023-12-14T07:24:51;7.30;99.90
4314;DHT22;2170;48.794;9.182;2023-12-14T07:27:34;7.30;99.90
4314;DHT22;2170;48.794;9.182;2023-12-14T07:30:10;7.30;99.90
4314;DHT22;2170;48.794;9.182;2023-12-14T07:32:51;7.30;99.90
4314;DHT22;2170;48.794;9.182;2023-12-14T07:35:28;7.30;99.90
4314;DHT22;2170;48.794;9.182;2023-12-14T07:37:59;7.30;99.90
4314;DHT22;2170;48.794;9.182;2023-12-14T07:40:43;7.10;99.90
4314;DHT22;2170;48.794;9.182;2023-12-14T07:43:20;7.40;99.90
4314;DHT22;2170;48.794;9.182;2023-12-14T07:45:57;7.50;99.90
4314;DHT22;2170;48.794;9.182;2023-12-14T07:48:42;7.50;99.90
4314;DHT22;2170;48.794;9.182;2023-12-14T07:51:34;7.50;99.90
4314;DHT22;2170;48.794;9.182;2023-12-14T07:54:17;7.50;99.90
4314;DHT22;2170;48.794;9.182;2023-12-14T07:57:13;7.50;99.90
4314;DHT22;2170;48.794;9.182;2023-12-14T08:00:16;7.50;99.90
4314;DHT22;2170;48.794;9.182;2023-12-14T08:03:00;7.50;99.90
4314;DHT22;2170;48.794;9.182;2023-12-14T08:05:40;7.50;99.90
4314;DHT22;2170;48.794;9.182;2023-12-14T08:08:11;7.60;99.90
4314;DHT22;2170;48.794;9.182;2023-12-14T08:10:41;7.70;99.90
4314;DHT22;2170;48.794;9.182;2023-12-14T08:13:10;7.70;99.90
4314;DHT22;2170;48.794;9.182;2023-12-14T08:15:56;7.60;99.90
4314;DHT22;2170;48.794;9.182;2023-12-14T08:18:28;7.60;99.90
4314;DHT22;2170;48.794;9.182;2023-12-14T08:21:03;7.70;99.90
4314;DHT22;2170;48.794;9.182;2023-12-14T08:23:47;7.70;99.90
4314;DHT22;2170;48.794;9.182;2023-12-14T08:26:23;7.90;99.90
4314;DHT22;2170;48.794;9.182;2023-12-14T08:29:07;7.70;99.90
4314;DHT22;2170;48.794;9.182;2023-12-14T08:31:46;7.70;99.90
4314;DHT22;2170;48.794;9.182;2023-12-14T08:34:17;7.70;99.90
4314;DHT22;2170;48.794;9.182;2023-12-14T08:37:05;7.70;99.90
4314;DHT22;2170;48.794;9.182;2023-12-14T08:39:40;7.70;99.90
4314;DHT22;2170;48.794;9.182;2023-12-14T08:42:11;7.80;99.90
4314;DHT22;2170;48.794;9.182;2023-12-14T08:44:52;7.80;99.90
4314;DHT22;2170;48.794;9.182;2023-12-14T08:47:31;7.90;99.90
4314;DHT22;2170;48.794;9.182;2023-12-14T08:50:22;7.90;99.90
4314;DHT22;2170;48.794;9.182;2023-12-14T08:52:58;7.50;99.90
4314;DHT22;2170;48.794;9.182;2023-12-14T08:55:38;7.90;99.90
4314;DHT22;2170;48.794;9.182;2023-12-14T08:58:12;7.90;99.90
4314;DHT22;2170;48.794;9.182;2023-12-14T09:00:46;8.10;99.90
4314;DHT22;2170;48.794;9.182;2023-12-14T09:03:18;8.00;99.90
4314;DHT22;2170;48.794;9.182;2023-12-14T09:05:49;8.00;99.90
4314;DHT22;2170;48.794;9.182;2023-12-14T09:08:20;8.10;99.90
4314;DHT22;2170;48.794;9.182;2023-12-14T09:10:50;7.90;99.90
4314;DHT22;2170;48.794;9.182;2023-12-14T09:13:20;7.90;99.90
4314;DHT22;2170;48.794;9.182;2023-12-14T09:15:50;7.90;99.90
4314;DHT22;2170;48.794;9.182;2023-12-14T09:18:21;8.00;99.90
4314;DHT22;2170;48.794;9.182;2023-12-14T09:20:54;7.90;99.90
4314;DHT22;2170;48.794;9.182;2023-12-14T09:23:30;8.00;99.90
4314;DHT22;2170;48.794;9.182;2023-12-14T09:26:01;8.10;99.90
4314;DHT22;2170;48.794;9.182;2023-12-14T09:28:36;8.10;99.90
4314;DHT22;2170;48.794;9.182;2023-12-14T09:31:12;8.10;99.90
4314;DHT22;2170;48.794;9.182;2023-12-14T09:33:48;8.30;99.90
4314;DHT22;2170;48.794;9.182;2023-12-14T09:36:18;8.10;99.90
4314;DHT22;2170;48.794;9.182;2023-12-14T09:38:53;8.10;99.90
4314;DHT22;2170;48.794;9.182;2023-12-14T09:41:32;8.10;99.90
4314;DHT22;2170;48.794;9.182;2023-12-14T09:44:22;8.20;99.90
4314;DHT22;2170;48.794;9.182;2023-12-14T09:46:58;8.20;99.90
4314;DHT22;2170;48.794;9.182;2023-12-14T09:49:38;8.20;99.90
4314;DHT22;2170;48.794;9.182;2023-12-14T09:52:11;8.20;99.90
4314;DHT22;2170;48.794;9.182;2023-12-14T09:54:49;8.20;99.90
4314;DHT22;2170;48.794;9.182;2023-12-14T09:57:21;8.30;99.90
4314;DHT22;2170;48.794;9.182;2023-12-14T10:00:03;8.30;99.90
4314;DHT22;2170;48.794;9.182;2023-12-14T10:02:44;8.40;99.90
4314;DHT22;2170;48.794;9.182;2023-12-14T10:05:36;8.40;99.90
4314;DHT22;2170;48.794;9.182;2023-12-14T10:08:12;8.50;99.90
4314;DHT22;2170;48.794;9.182;2023-12-14T10:10:56;8.70;99.90
4314;DHT22;2170;48.794;9.182;2023-12-14T10:13:37;8.60;99.90
4314;DHT22;2170;48.794;9.182;2023-12-14T10:16:27;8.80;99.90
4314;DHT22;2170;48.794;9.182;2023-12-14T10:18:58;8.90;99.90
4314;DHT22;2170;48.794;9.182;2023-12-14T10:21:31;9.20;99.90
4314;DHT22;2170;48.794;9.182;2023-12-14T10:24:07;9.20;99.90
4314;DHT22;2170;48.794;9.182;2023-12-14T10:26:37;9.30;99.90
4314;DHT22;2170;48.794;9.182;2023-12-14T10:29:08;9.30;99.90
4314;DHT22;2170;48.794;9.182;2023-12-14T10:31:51;9.40;99.90
4314;DHT22;2170;48.794;9.182;2023-12-14T10:34:20;9.40;99.90
4314;DHT22;2170;48.794;9.182;2023-12-14T10:36:50;9.50;99.90
4314;DHT22;2170;48.794;9.182;2023-12-14T10:39:19;9.60;99.90
4314;DHT22;2170;48.794;9.182;2023-12-14T10:42:03;9.70;99.90
4314;DHT22;2170;48.794;9.182;2023-12-14T10:44:39;9.80;99.90
4314;DHT22;2170;48.794;9.182;2023-12-14T10:47:17;9.60;99.90
4314;DHT22;2170;48.794;9.182;2023-12-14T10:49:49;9.50;99.90
4314;DHT22;2170;48.794;9.182;2023-12-14T10:52:25;9.50;99.90
4314;DHT22;2170;48.794;9.182;2023-12-14T10:55:14;9.40;99.90
4314;DHT22;2170;48.794;9.182;2023-12-14T10:57:48;9.30;99.90
4314;DHT22;2170;48.794;9.182;2023-12-14T11:00:19;9.30;99.90
4314;DHT22;2170;48.794;9.182;2023-12-14T11:02:47;9.30;99.90
4314;DHT22;2170;48.794;9.182;2023-12-14T11:05:24;9.20;99.90
4314;DHT22;2170;48.794;9.182;2023-12-14T11:08:12;9.30;99.90
4314;DHT22;2170;48.794;9.182;2023-12-14T11:11:03;9.30;99.90
4314;DHT22;2170;48.794;9.182;2023-12-14T11:17:11;9.30;99.90
4314;DHT22;2170;48.794;9.182;2023-12-14T11:19:43;9.10;99.90
4314;DHT22;2170;48.794;9.182;2023-12-14T11:22:28;9.10;99.90
4314;DHT22;2170;48.794;9.182;2023-12-14T11:25:10;9.00;99.90
4314;DHT22;2170;48.794;9.182;2023-12-14T11:27:46;9.00;99.90
4314;DHT22;2170;48.794;9.182;2023-12-14T11:30:18;9.00;99.90
4314;DHT22;2170;48.794;9.182;2023-12-14T11:33:03;9.00;99.90
4314;DHT22;2170;48.794;9.182;2023-12-14T11:35:43;9.00;99.90
4314;DHT22;2170;48.794;9.182;2023-12-14T11:38:30;9.10;99.90
4314;DHT22;2170;48.794;9.182;2023-12-14T11:41:03;9.10;99.90
4314;DHT22;2170;48.794;9.182;2023-12-14T11:43:41;9.30;99.90
4314;DHT22;2170;48.794;9.182;2023-12-14T11:46:20;9.30;99.90
4314;DHT22;2170;48.794;9.182;2023-12-14T11:48:57;9.30;99.90
4314;DHT22;2170;48.794;9.182;2023-12-14T11:51:33;9.40;99.90
4314;DHT22;2170;48.794;9.182;2023-12-14T11:54:04;9.50;99.90
4314;DHT22;2170;48.794;9.182;2023-12-14T11:56:35;9.40;99.90
4314;DHT22;2170;48.794;9.182;2023-12-14T11:59:03;9.30;99.90
4314;DHT22;2170;48.794;9.182;2023-12-14T12:01:33;9.20;99.90
4314;DHT22;2170;48.794;9.182;2023-12-14T12:04:18;9.20;99.90
4314;DHT22;2170;48.794;9.182;2023-12-14T12:06:47;9.30;99.90
4314;DHT22;2170;48.794;9.182;2023-12-14T12:09:53;9.30;99.90
4314;DHT22;2170;48.794;9.182;2023-12-14T12:12:26;9.40;99.90
4314;DHT22;2170;48.794;9.182;2023-12-14T12:14:55;9.50;99.90
4314;DHT22;2170;48.794;9.182;2023-12-14T12:17:33;9.50;99.90
4314;DHT22;2170;48.794;9.182;2023-12-14T12:20:25;9.60;99.90
4314;DHT22;2170;48.794;9.182;2023-12-14T12:22:56;9.40;99.90
4314;DHT22;2170;48.794;9.182;2023-12-14T12:25:40;9.30;99.90
4314;DHT22;2170;48.794;9.182;2023-12-14T12:28:11;9.30;99.90
4314;DHT22;2170;48.794;9.182;2023-12-14T12:31:01;9.30;99.90
4314;DHT22;2170;48.794;9.182;2023-12-14T12:33:46;9.30;99.90
4314;DHT22;2170;48.794;9.182;2023-12-14T12:36:42;9.20;99.90
4314;DHT22;2170;48.794;9.182;2023-12-14T12:39:23;9.10;99.90
4314;DHT22;2170;48.794;9.182;2023-12-14T12:42:09;9.10;99.90
4314;DHT22;2170;48.794;9.182;2023-12-14T12:44:43;9.10;99.90
4314;DHT22;2170;48.794;9.182;2023-12-14T12:47:23;9.10;99.90
4314;DHT22;2170;48.794;9.182;2023-12-14T12:49:58;9.00;99.90
4314;DHT22;2170;48.794;9.182;2023-12-14T12:52:37;8.90;99.90
4314;DHT22;2170;48.794;9.182;2023-12-14T12:55:06;8.90;99.90
4314;DHT22;2170;48.794;9.182;2023-12-14T12:57:36;8.80;99.90
4314;DHT22;2170;48.794;9.182;2023-12-14T13:00:11;8.80;99.90
4314;DHT22;2170;48.794;9.182;2023-12-14T13:02:42;8.80;99.90
4314;DHT22;2170;48.794;9.182;2023-12-14T13:05:26;8.80;99.90
4314;DHT22;2170;48.794;9.182;2023-12-14T13:08:20;8.80;99.90
4314;DHT22;2170;48.794;9.182;2023-12-14T13:10:53;8.80;99.90
4314;DHT22;2170;48.794;9.182;2023-12-14T13:13:26;8.70;99.90
4314;DHT22;2170;48.794;9.182;2023-12-14T13:16:01;8.60;99.90
4314;DHT22;2170;48.794;9.182;2023-12-14T13:18:29;8.70;99.90
4314;DHT22;2170;48.794;9.182;2023-12-14T13:21:00;8.70;99.90
4314;DHT22;2170;48.794;9.182;2023-12-14T13:23:32;8.60;99.90
4314;DHT22;2170;48.794;9.182;2023-12-14T13:26:02;8.60;99.90
4314;DHT22;2170;48.794;9.182;2023-12-14T13:28:34;8.60;99.90
4314;DHT22;2170;48.794;9.182;2023-12-14T13:31:05;8.50;99.90
4314;DHT22;2170;48.794;9.182;2023-12-14T13:33:33;8.50;99.90
4314;DHT22;2170;48.794;9.182;2023-12-14T13:36:03;8.40;99.90
4314;DHT22;2170;48.794;9.182;2023-12-14T13:38:39;8.50;99.90
4314;DHT22;2170;48.794;9.182;2023-12-14T13:41:12;8.40;99.90
4314;DHT22;2170;48.794;9.182;2023-12-14T13:43:40;8.30;99.90
4314;DHT22;2170;48.794;9.182;2023-12-14T13:46:09;8.30;99.90
4314;DHT22;2170;48.794;9.182;2023-12-14T13:48:37;8.20;99.90
4314;DHT22;2170;48.794;9.182;2023-12-14T13:51:07;8.10;99.90
4314;DHT22;2170;48.794;9.182;2023-12-14T13:53:34;8.10;99.90
4314;DHT22;2170;48.794;9.182;2023-12-14T13:56:05;8.20;99.90
4314;DHT22;2170;48.794;9.182;2023-12-14T13:58:33;8.20;99.90
4314;DHT22;2170;48.794;9.182;2023-12-14T14:01:14;8.20;99.90
4314;DHT22;2170;48.794;9.182;2023-12-14T14:03:45;8.10;99.90
4314;DHT22;2170;48.794;9.182;2023-12-14T14:06:14;8.20;99.90
4314;DHT22;2170;48.794;9.182;2023-12-14T14:08:49;8.10;99.90
4314;DHT22;2170;48.794;9.182;2023-12-14T14:11:23;8.20;99.90
4314;DHT22;2170;48.794;9.182;2023-12-14T14:13:54;8.20;99.90
4314;DHT22;2170;48.794;9.182;2023-12-14T14:16:33;8.20;99.90
4314;DHT22;2170;48.794;9.182;2023-12-14T14:19:05;8.00;99.90
4314;DHT22;2170;48.794;9.182;2023-12-14T14:21:36;8.20;99.90
4314;DHT22;2170;48.794;9.182;2023-12-14T14:24:07;7.90;99.90
4314;DHT22;2170;48.794;9.182;2023-12-14T14:27:03;8.00;99.90
4314;DHT22;2170;48.794;9.182;2023-12-14T14:29:50;8.00;99.90
4314;DHT22;2170;48.794;9.182;2023-12-14T14:32:49;8.00;99.90
4314;DHT22;2170;48.794;9.182;2023-12-14T14:35:21;8.20;99.90
4314;DHT22;2170;48.794;9.182;2023-12-14T14:37:58;8.00;99.90
4314;DHT22;2170;48.794;9.182;2023-12-14T14:40:33;8.00;99.90
4314;DHT22;2170;48.794;9.182;2023-12-14T14:43:05;8.00;99.90
4314;DHT22;2170;48.794;9.182;2023-12-14T14:45:32;8.00;99.90
4314;DHT22;2170;48.794;9.182;2023-12-14T14:47:59;7.90;99.90
4314;DHT22;2170;48.794;9.182;2023-12-14T14:50:37;7.90;99.90
4314;DHT22;2170;48.794;9.182;2023-12-14T14:53:12;8.00;99.90
4314;DHT22;2170;48.794;9.182;2023-12-14T14:55:45;8.00;99.90
4314;DHT22;2170;48.794;9.182;2023-12-14T14:58:21;8.00;99.90
4314;DHT22;2170;48.794;9.182;2023-12-14T15:01:02;7.90;99.90
4314;DHT22;2170;48.794;9.182;2023-12-14T15:03:46;7.90;99.90
4314;DHT22;2170;48.794;9.182;2023-12-14T15:06:19;7.80;99.90
4314;DHT22;2170;48.794;9.182;2023-12-14T15:08:57;7.90;99.90
4314;DHT22;2170;48.794;9.182;2023-12-14T15:11:28;8.00;99.90
4314;DHT22;2170;48.794;9.182;2023-12-14T15:13:59;8.00;99.90
4314;DHT22;2170;48.794;9.182;2023-12-14T15:16:31;8.20;99.90
4314;DHT22;2170;48.794;9.182;2023-12-14T15:19:08;7.90;99.90
4314;DHT22;2170;48.794;9.182;2023-12-14T15:21:46;7.90;99.90
4314;DHT22;2170;48.794;9.182;2023-12-14T15:24:28;7.90;99.90
4314;DHT22;2170;48.794;9.182;2023-12-14T15:27:08;7.90;99.90
4314;DHT22;2170;48.794;9.182;2023-12-14T15:29:46;8.10;99.90
4314;DHT22;2170;48.794;9.182;2023-12-14T15:32:26;7.90;99.90
4314;DHT22;2170;48.794;9.182;2023-12-14T15:35:05;7.90;99.90
4314;DHT22;2170;48.794;9.182;2023-12-14T15:38:21;7.90;99.90
4314;DHT22;2170;48.794;9.182;2023-12-14T15:40:45;7.90;99.90
4314;DHT22;2170;48.794;9.182;2023-12-14T15:43:31;7.90;99.90
4314;DHT22;2170;48.794;9.182;2023-12-14T15:46:07;7.90;99.90
4314;DHT22;2170;48.794;9.182;2023-12-14T15:48:42;7.90;99.90
4314;DHT22;2170;48.794;9.182;2023-12-14T15:51:39;7.90;99.90
4314;DHT22;2170;48.794;9.182;2023-12-14T15:54:10;7.80;99.90
4314;DHT22;2170;48.794;9.182;2023-12-14T15:56:50;7.80;99.90
4314;DHT22;2170;48.794;9.182;2023-12-14T16:00:29;7.80;99.90
4314;DHT22;2170;48.794;9.182;2023-12-14T16:03:13;7.80;99.90
4314;DHT22;2170;48.794;9.182;2023-12-14T16:15:19;7.70;99.90
4314;DHT22;2170;48.794;9.182;2023-12-14T16:17:59;7.70;99.90
4314;DHT22;2170;48.794;9.182;2023-12-14T16:20:41;7.70;99.90
4314;DHT22;2170;48.794;9.182;2023-12-14T16:23:16;7.70;99.90
4314;DHT22;2170;48.794;9.182;2023-12-14T16:25:47;7.70;99.90
4314;DHT22;2170;48.794;9.182;2023-12-14T16:28:15;7.70;99.90
4314;DHT22;2170;48.794;9.182;2023-12-14T16:30:50;7.70;99.90
4314;DHT22;2170;48.794;9.182;2023-12-14T16:33:24;7.70;99.90
4314;DHT22;2170;48.794;9.182;2023-12-14T16:35:58;7.70;99.90
4314;DHT22;2170;48.794;9.182;2023-12-14T16:38:36;7.70;99.90
4314;DHT22;2170;48.794;9.182;2023-12-14T16:41:06;7.70;99.90
4314;DHT22;2170;48.794;9.182;2023-12-14T16:43:48;7.70;99.90
4314;DHT22;2170;48.794;9.182;2023-12-14T16:46:33;7.70;99.90
4314;DHT22;2170;48.794;9.182;2023-12-14T16:49:16;7.70;99.90
4314;DHT22;2170;48.794;9.182;2023-12-14T16:51:47;7.70;99.90
4314;DHT22;2170;48.794;9.182;2023-12-14T16:54:28;7.70;99.90
4314;DHT22;2170;48.794;9.182;2023-12-14T16:57:04;7.70;99.90
4314;DHT22;2170;48.794;9.182;2023-12-14T16:59:33;7.60;99.90
4314;DHT22;2170;48.794;9.182;2023-12-14T17:02:03;7.60;99.90
4314;DHT22;2170;48.794;9.182;2023-12-14T17:04:34;7.60;99.90
4314;DHT22;2170;48.794;9.182;2023-12-14T17:07:02;7.60;99.90
4314;DHT22;2170;48.794;9.182;2023-12-14T17:09:31;7.50;99.90
4314;DHT22;2170;48.794;9.182;2023-12-14T17:12:00;7.50;99.90
4314;DHT22;2170;48.794;9.182;2023-12-14T17:14:29;7.40;99.90
4314;DHT22;2170;48.794;9.182;2023-12-14T17:16:58;7.40;99.90
4314;DHT22;2170;48.794;9.182;2023-12-14T17:19:27;7.40;99.90
4314;DHT22;2170;48.794;9.182;2023-12-14T17:21:56;7.40;99.90
4314;DHT22;2170;48.794;9.182;2023-12-14T17:24:24;7.30;99.90
4314;DHT22;2170;48.794;9.182;2023-12-14T17:26:52;7.40;99.90
4314;DHT22;2170;48.794;9.182;2023-12-14T17:29:20;7.40;99.90
4314;DHT22;2170;48.794;9.182;2023-12-14T17:32:03;7.30;99.90
4314;DHT22;2170;48.794;9.182;2023-12-14T17:34:32;7.30;99.90
4314;DHT22;2170;48.794;9.182;2023-12-14T17:37:06;7.30;99.90
4314;DHT22;2170;48.794;9.182;2023-12-14T17:39:41;7.30;99.90
4314;DHT22;2170;48.794;9.182;2023-12-14T17:42:22;7.30;99.90
4314;DHT22;2170;48.794;9.182;2023-12-14T17:44:57;7.30;99.90
4314;DHT22;2170;48.794;9.182;2023-12-14T17:47:25;7.40;99.90
4314;DHT22;2170;48.794;9.182;2023-12-14T17:49:56;7.40;99.90
4314;DHT22;2170;48.794;9.182;2023-12-14T17:52:27;7.40;99.90
4314;DHT22;2170;48.794;9.182;2023-12-14T17:54:56;7.40;99.90
4314;DHT22;2170;48.794;9.182;2023-12-14T17:57:42;7.40;99.90
4314;DHT22;2170;48.794;9.182;2023-12-14T18:00:22;7.20;99.90
4314;DHT22;2170;48.794;9.182;2023-12-14T18:02:57;7.40;99.90
4314;DHT22;2170;48.794;9.182;2023-12-14T18:05:33;7.30;99.90
4314;DHT22;2170;48.794;9.182;2023-12-14T18:08:26;7.20;99.90
4314;DHT22;2170;48.794;9.182;2023-12-14T18:11:19;7.20;99.90
4314;DHT22;2170;48.794;9.182;2023-12-14T18:13:58;7.20;99.90
4314;DHT22;2170;48.794;9.182;2023-12-14T18:16:35;7.20;99.90
4314;DHT22;2170;48.794;9.182;2023-12-14T18:19:13;6.90;99.90
4314;DHT22;2170;48.794;9.182;2023-12-14T18:21:43;7.10;99.90
4314;DHT22;2170;48.794;9.182;2023-12-14T18:24:14;7.10;99.90
4314;DHT22;2170;48.794;9.182;2023-12-14T18:26:43;7.00;99.90
4314;DHT22;2170;48.794;9.182;2023-12-14T18:29:17;7.00;99.90
4314;DHT22;2170;48.794;9.182;2023-12-14T18:31:50;6.80;99.90
4314;DHT22;2170;48.794;9.182;2023-12-14T18:34:22;6.80;99.90
4314;DHT22;2170;48.794;9.182;2023-12-14T18:36:52;6.80;99.90
4314;DHT22;2170;48.794;9.182;2023-12-14T18:39:25;6.90;99.90
4314;DHT22;2170;48.794;9.182;2023-12-14T18:41:54;6.80;99.90